Time;durP1;ratioP1;P1;durP2;ratioP2;P2;SDS_P1;SDS_P2;PMS_P1;PMS_P2;Temp;Humidity;BMP_temperature;BMP_pressure;BME280_temperature;BME280_humidity;BME280_pressure;Samples;Min_cycle;Max_cycle;Signal;HPM_P1;HPM_P2
2023/01/20 00:01:45;;;;;;;;;;;;;;;21.30;28.81;97409.38;5075565;28;969;-77
2023/01/20 00:04:10;;;;;;;;;;;;;;;21.19;28.88;97412.53;5075589;28;928;-78
2023/01/20 00:06:36;;;;;;;;;;;;;;;21.08;28.85;97423.41;5076527;28;915;-78
2023/01/20 00:09:01;;;;;;;;;;;;;;;21.23;28.95;97424.50;5076929;28;1147;-77
2023/01/20 00:11:43;;;;;;;;;;;;;;;21.32;28.92;97426.66;5040101;28;959;-78
2023/01/20 00:14:08;;;;;;;;;;;;;;;21.49;28.33;97421.63;5053878;28;1906;-77
2023/01/20 00:16:35;;;;;;;;;;;;;;;21.31;28.75;97425.09;5053676;28;1057;-78
2023/01/20 00:19:00;;;;;;;;;;;;;;;21.30;28.48;97418.66;5053657;28;984;-77
2023/01/20 00:21:25;;;;;;;;;;;;;;;21.38;28.52;97429.72;5053952;28;933;-78
2023/01/20 00:23:51;;;;;;;;;;;;;;;20.79;29.14;97418.69;5053832;28;955;-78
2023/01/20 00:26:17;;;;;;;;;;;;;;;21.85;27.89;97412.63;5053782;28;927;-78
2023/01/20 00:28:43;;;;;;;;;;;;;;;21.97;28.65;97413.84;5053543;28;984;-78
2023/01/20 00:31:11;;;;;;;;;;;;;;;21.47;29.43;97404.31;5037097;28;983;-78
2023/01/20 00:33:37;;;;;;;;;;;;;;;21.18;29.76;97399.63;5053201;28;1989;-78
2023/01/20 00:36:02;;;;;;;;;;;;;;;21.13;29.56;97403.03;5053660;28;936;-77
2023/01/20 00:38:27;;;;;;;;;;;;;;;21.04;29.78;97405.78;5053598;28;985;-77
2023/01/20 00:40:53;;;;;;;;;;;;;;;21.39;29.08;97398.09;5053634;28;951;-78
2023/01/20 00:43:19;;;;;;;;;;;;;;;21.61;28.46;97389.66;5053799;28;955;-78
2023/01/20 00:45:44;;;;;;;;;;;;;;;21.32;28.98;97393.50;5053952;28;941;-78
2023/01/20 00:48:10;;;;;;;;;;;;;;;21.19;28.92;97384.25;5003775;28;1559;-78
2023/01/20 00:50:35;;;;;;;;;;;;;;;20.92;29.12;97386.78;5053742;28;1153;-78
2023/01/20 00:53:01;;;;;;;;;;;;;;;21.02;28.80;97385.63;5053234;28;1989;-78
2023/01/20 00:55:26;;;;;;;;;;;;;;;20.95;28.96;97374.56;5037028;28;1130;-78
2023/01/20 00:57:52;;;;;;;;;;;;;;;21.21;28.66;97375.28;5053371;28;1087;-78
2023/01/20 01:00:17;;;;;;;;;;;;;;;21.44;27.76;97368.44;5053450;28;1005;-77
2023/01/20 01:02:43;;;;;;;;;;;;;;;21.07;28.22;97357.56;5053547;28;1080;-77
2023/01/20 01:05:08;;;;;;;;;;;;;;;21.07;28.04;97353.94;5069735;28;910;-78
2023/01/20 01:07:34;;;;;;;;;;;;;;;21.13;27.90;97337.97;5075295;28;1018;-78
2023/01/20 01:09:59;;;;;;;;;;;;;;;21.32;27.54;97347.44;5075429;28;978;-78
2023/01/20 01:12:24;;;;;;;;;;;;;;;21.26;27.71;97344.38;5074726;28;909;-78
2023/01/20 01:14:50;;;;;;;;;;;;;;;21.62;27.04;97343.13;5058077;28;1902;-77
2023/01/20 01:17:15;;;;;;;;;;;;;;;21.33;27.59;97332.81;5078509;28;943;-78
2023/01/20 01:19:41;;;;;;;;;;;;;;;21.22;27.84;97332.38;5079875;28;997;-77
2023/01/20 01:22:06;;;;;;;;;;;;;;;20.95;28.01;97330.09;5078642;28;976;-78
2023/01/20 01:24:32;;;;;;;;;;;;;;;21.00;28.24;97342.88;5079669;28;1146;-77
2023/01/20 01:26:57;;;;;;;;;;;;;;;21.27;27.72;97334.63;5079598;28;927;-77
2023/01/20 01:29:23;;;;;;;;;;;;;;;21.53;27.21;97323.22;5078507;28;1024;-78
2023/01/20 01:31:48;;;;;;;;;;;;;;;21.68;26.96;97323.50;5079325;28;873;-78
2023/01/20 01:34:14;;;;;;;;;;;;;;;21.17;27.91;97324.50;5077922;28;1960;-77
2023/01/20 01:36:39;;;;;;;;;;;;;;;21.14;27.66;97339.56;5079788;28;923;-77
2023/01/20 01:39:05;;;;;;;;;;;;;;;20.98;27.81;97329.19;5078335;28;866;-78
2023/01/20 01:41:30;;;;;;;;;;;;;;;21.05;27.88;97323.28;5078474;28;1209;-77
2023/01/20 01:43:59;;;;;;;;;;;;;;;21.33;27.39;97323.53;5078272;28;885;-77
2023/01/20 01:46:25;;;;;;;;;;;;;;;21.75;26.78;97311.88;5036851;28;891;-77
2023/01/20 01:48:50;;;;;;;;;;;;;;;21.19;27.71;97316.34;5036536;28;947;-78
2023/01/20 01:51:20;;;;;;;;;;;;;;;21.03;27.74;97316.50;5036877;28;995;-78
2023/01/20 01:53:46;;;;;;;;;;;;;;;21.19;27.31;97302.19;5036973;28;2001;-78
2023/01/20 01:56:12;;;;;;;;;;;;;;;21.11;27.82;97302.91;5036848;28;969;-77
2023/01/20 01:58:38;;;;;;;;;;;;;;;21.25;27.36;97314.50;5003532;28;965;-78
2023/01/20 02:01:03;;;;;;;;;;;;;;;21.71;26.98;97300.72;5036519;28;998;-78
2023/01/20 02:03:30;;;;;;;;;;;;;;;21.55;26.91;97303.72;5036342;28;1015;-77
2023/01/20 02:05:56;;;;;;;;;;;;;;;21.06;27.58;97304.28;5056082;28;1001;-76
2023/01/20 02:08:21;;;;;;;;;;;;;;;21.15;27.56;97295.88;5023038;28;1490;-78
2023/01/20 02:10:47;;;;;;;;;;;;;;;20.79;28.23;97294.31;5023309;28;1099;-77
2023/01/20 02:13:12;;;;;;;;;;;;;;;21.55;26.86;97298.88;5056245;28;1992;-77
2023/01/20 02:15:57;;;;;;;;;;;;;;;21.38;27.47;97288.22;5039789;28;999;-77
2023/01/20 02:18:29;;;;;;;;;;;;;;;21.35;27.18;97289.13;5039546;28;921;-78
2023/01/20 02:21:13;;;;;;;;;;;;;;;21.22;27.42;97287.13;5056173;28;976;-78
2023/01/20 02:23:57;;;;;;;;;;;;;;;21.01;27.61;97282.22;5055841;28;948;-77
2023/01/20 02:26:23;;;;;;;;;;;;;;;20.79;28.03;97288.66;5055963;28;1054;-77
2023/01/20 02:29:07;;;;;;;;;;;;;;;21.32;27.20;97283.13;5055257;28;963;-78
2023/01/20 02:31:51;;;;;;;;;;;;;;;21.46;26.93;97281.03;5055664;28;1011;-77
2023/01/20 02:34:35;;;;;;;;;;;;;;;21.53;26.56;97278.72;5055670;28;1975;-78
2023/01/20 02:37:05;;;;;;;;;;;;;;;21.22;27.33;97281.47;5067689;28;1025;-77
2023/01/20 02:39:35;;;;;;;;;;;;;;;21.22;26.96;97287.13;5076992;28;1175;-77
2023/01/20 02:42:02;;;;;;;;;;;;;;;21.21;27.24;97277.06;5077286;28;923;-78
2023/01/20 02:44:30;;;;;;;;;;;;;;;21.28;27.09;97285.28;5076754;28;920;-78
2023/01/20 02:47:16;;;;;;;;;;;;;;;21.55;26.62;97281.09;5076657;28;1376;-77
2023/01/20 02:49:41;;;;;;;;;;;;;;;21.27;26.86;97278.03;5035247;28;1093;-77
2023/01/20 02:52:25;;;;;;;;;;;;;;;21.25;26.97;97268.44;5035826;28;1070;-78
2023/01/20 02:54:51;;;;;;;;;;;;;;;20.93;27.46;97276.03;5035211;28;1909;-78
2023/01/20 02:57:17;;;;;;;;;;;;;;;20.97;27.72;97273.09;5019223;28;900;-77
2023/01/20 02:59:44;;;;;;;;;;;;;;;21.74;26.34;97277.13;4995720;28;903;-78
2023/01/20 03:02:13;;;;;;;;;;;;;;;21.83;26.22;97268.69;4996150;28;1094;-77
2023/01/20 03:04:49;;;;;;;;;;;;;;;21.57;26.37;97275.75;4995879;28;973;-77
2023/01/20 03:07:14;;;;;;;;;;;;;;;20.91;27.51;97266.44;4995616;28;1036;-77
2023/01/20 03:09:42;;;;;;;;;;;;;;;20.92;27.62;97277.28;4995926;28;1133;-77
2023/01/20 03:12:14;;;;;;;;;;;;;;;21.17;27.37;97284.88;4995881;28;949;-78
2023/01/20 03:14:40;;;;;;;;;;;;;;;21.39;26.72;97290.56;4995419;28;1910;-77
2023/01/20 03:17:05;;;;;;;;;;;;;;;21.78;26.12;97291.94;4995910;28;944;-78
2023/01/20 03:19:30;;;;;;;;;;;;;;;21.32;26.53;97300.13;4995786;28;1072;-78
2023/01/20 03:21:56;;;;;;;;;;;;;;;20.89;27.35;97292.34;4995474;28;1044;-78
2023/01/20 03:24:21;;;;;;;;;;;;;;;21.11;27.17;97289.56;4979220;28;928;-77
2023/01/20 03:26:47;;;;;;;;;;;;;;;21.43;26.72;97285.56;5005535;28;1058;-77
2023/01/20 03:29:14;;;;;;;;;;;;;;;21.42;26.77;97283.22;5015374;28;920;-78
2023/01/20 03:31:41;;;;;;;;;;;;;;;21.50;26.59;97276.00;5015017;28;1102;-78
2023/01/20 03:34:09;;;;;;;;;;;;;;;21.19;26.76;97282.41;5014906;28;1902;-78
2023/01/20 03:36:35;;;;;;;;;;;;;;;21.21;26.91;97273.44;5025854;28;1164;-78
2023/01/20 03:39:00;;;;;;;;;;;;;;;21.02;26.89;97284.59;5053687;28;975;-78
2023/01/20 03:41:33;;;;;;;;;;;;;;;21.45;26.71;97282.28;5038223;28;997;-77
2023/01/20 03:44:11;;;;;;;;;;;;;;;21.62;26.21;97292.16;5054405;28;938;-78
2023/01/20 03:46:48;;;;;;;;;;;;;;;21.47;26.52;97288.28;4995205;28;1022;-77
2023/01/20 03:49:16;;;;;;;;;;;;;;;21.27;26.62;97283.69;4978966;28;957;-77
2023/01/20 03:51:47;;;;;;;;;;;;;;;20.80;27.33;97278.91;4995157;28;1006;-77
2023/01/20 03:54:14;;;;;;;;;;;;;;;20.78;27.62;97287.06;4978890;28;1902;-77
2023/01/20 03:56:39;;;;;;;;;;;;;;;21.42;26.54;97291.69;4995311;28;1006;-77
2023/01/20 03:59:05;;;;;;;;;;;;;;;21.44;26.60;97292.03;5010069;28;909;-77
2023/01/20 04:01:31;;;;;;;;;;;;;;;21.81;25.97;97295.88;5017948;28;1016;-77
2023/01/20 04:03:57;;;;;;;;;;;;;;;21.23;26.69;97305.66;5017884;28;956;-78
2023/01/20 04:06:22;;;;;;;;;;;;;;;21.04;27.07;97315.28;5034391;28;981;-77
2023/01/20 04:08:55;;;;;;;;;;;;;;;20.76;27.46;97314.19;5017769;28;1068;-78
2023/01/20 04:11:20;;;;;;;;;;;;;;;21.24;26.92;97321.41;5034412;28;943;-77
2023/01/20 04:13:46;;;;;;;;;;;;;;;21.33;26.73;97315.06;5034110;28;1969;-77
2023/01/20 04:16:13;;;;;;;;;;;;;;;21.98;26.01;97313.44;5034024;28;993;-78
2023/01/20 04:18:39;;;;;;;;;;;;;;;21.06;26.96;97315.59;5071029;28;866;-78
2023/01/20 04:21:04;;;;;;;;;;;;;;;20.96;27.33;97305.44;5075538;28;934;-77
2023/01/20 04:23:31;;;;;;;;;;;;;;;20.97;27.17;97315.50;5075908;28;940;-78
2023/01/20 04:25:57;;;;;;;;;;;;;;;21.27;26.75;97306.34;5075352;28;1097;-77
2023/01/20 04:28:22;;;;;;;;;;;;;;;21.42;26.74;97317.19;5076045;28;881;-77
2023/01/20 04:30:47;;;;;;;;;;;;;;;21.57;26.43;97315.41;5076275;28;953;-77
2023/01/20 04:33:13;;;;;;;;;;;;;;;21.02;27.04;97329.84;5076145;28;1902;-77
2023/01/20 04:35:38;;;;;;;;;;;;;;;20.99;27.03;97335.66;5076527;28;888;-77
2023/01/20 04:38:05;;;;;;;;;;;;;;;20.79;27.26;97328.22;5075991;28;914;-77
2023/01/20 04:40:30;;;;;;;;;;;;;;;21.09;27.08;97323.19;5076354;28;906;-78
2023/01/20 04:42:56;;;;;;;;;;;;;;;21.14;27.01;97331.06;5076119;28;887;-77
2023/01/20 04:45:21;;;;;;;;;;;;;;;21.43;26.37;97325.19;5076166;28;1076;-77
2023/01/20 04:47:47;;;;;;;;;;;;;;;21.26;26.57;97332.28;5076200;28;893;-78
2023/01/20 04:50:12;;;;;;;;;;;;;;;21.01;27.08;97333.94;5076237;28;909;-77
2023/01/20 04:52:38;;;;;;;;;;;;;;;21.00;27.23;97331.56;5080193;28;913;-77
2023/01/20 04:55:04;;;;;;;;;;;;;;;21.08;27.01;97318.75;5080501;28;1910;-78
2023/01/20 04:57:30;;;;;;;;;;;;;;;21.35;26.47;97332.38;5057380;28;1025;-78
2023/01/20 04:59:55;;;;;;;;;;;;;;;21.53;26.54;97341.00;5057455;28;925;-77
2023/01/20 05:02:20;;;;;;;;;;;;;;;21.47;26.76;97330.75;5057568;28;974;-80
2023/01/20 05:04:46;;;;;;;;;;;;;;;20.98;27.00;97345.34;5058671;28;881;-79
2023/01/20 05:07:11;;;;;;;;;;;;;;;21.08;26.84;97332.88;5059546;28;970;-79
2023/01/20 05:09:37;;;;;;;;;;;;;;;20.65;27.60;97337.19;5056215;28;1444;-80
2023/01/20 05:12:02;;;;;;;;;;;;;;;20.92;27.41;97335.88;5056635;28;1403;-78
2023/01/20 05:14:28;;;;;;;;;;;;;;;21.44;26.82;97331.66;5057058;28;1973;-78
2023/01/20 05:16:53;;;;;;;;;;;;;;;21.65;26.14;97324.41;5057018;28;1255;-78
2023/01/20 05:19:19;;;;;;;;;;;;;;;21.12;26.75;97327.13;5040614;28;1573;-78
2023/01/20 05:21:44;;;;;;;;;;;;;;;21.11;27.13;97320.66;5057602;28;1164;-78
2023/01/20 05:24:10;;;;;;;;;;;;;;;20.93;27.07;97323.31;5057049;28;1182;-78
2023/01/20 05:26:35;;;;;;;;;;;;;;;21.25;26.94;97320.16;5057109;28;1051;-78
2023/01/20 05:29:01;;;;;;;;;;;;;;;21.39;26.62;97320.91;5073500;28;1014;-78
2023/01/20 05:31:27;;;;;;;;;;;;;;;21.51;26.26;97320.06;5080376;28;995;-78
2023/01/20 05:33:52;;;;;;;;;;;;;;;21.43;26.16;97324.41;5080781;28;1988;-80
2023/01/20 05:36:17;;;;;;;;;;;;;;;21.04;26.90;97327.38;5080206;28;1709;-79
2023/01/20 05:38:43;;;;;;;;;;;;;;;21.19;26.89;97327.66;5079818;28;1005;-79
2023/01/20 05:41:09;;;;;;;;;;;;;;;21.50;26.52;97324.13;5080028;28;1064;-78
2023/01/20 05:43:34;;;;;;;;;;;;;;;21.47;26.28;97310.91;5078978;28;969;-78
2023/01/20 05:46:00;;;;;;;;;;;;;;;21.44;26.63;97314.66;5080962;28;911;-79
2023/01/20 05:48:25;;;;;;;;;;;;;;;21.10;26.76;97318.31;5080162;28;1287;-80
2023/01/20 05:50:50;;;;;;;;;;;;;;;21.12;26.72;97316.59;5080898;28;894;-80
2023/01/20 05:53:16;;;;;;;;;;;;;;;20.78;27.27;97320.22;5081695;28;1906;-80
2023/01/20 05:55:41;;;;;;;;;;;;;;;20.94;27.20;97316.44;5079736;28;811;-79
2023/01/20 05:58:07;;;;;;;;;;;;;;;21.25;26.63;97320.16;5065173;28;1505;-78
2023/01/20 06:00:33;;;;;;;;;;;;;;;21.55;26.44;97326.38;5078482;28;1516;-79
2023/01/20 06:02:58;;;;;;;;;;;;;;;21.53;26.04;97335.34;5078082;28;1474;-78
2023/01/20 06:05:24;;;;;;;;;;;;;;;21.30;26.59;97342.25;5059909;28;1027;-78
2023/01/20 06:07:49;;;;;;;;;;;;;;;20.69;27.43;97342.72;5079211;28;1137;-78
2023/01/20 06:10:15;;;;;;;;;;;;;;;20.96;26.98;97347.88;5078758;28;1028;-79
2023/01/20 06:12:41;;;;;;;;;;;;;;;21.44;26.23;97342.97;5078875;28;928;-78
2023/01/20 06:15:07;;;;;;;;;;;;;;;21.61;26.23;97335.88;5078724;28;1918;-79
2023/01/20 06:17:32;;;;;;;;;;;;;;;21.50;26.29;97341.13;5079515;28;907;-79
2023/01/20 06:19:59;;;;;;;;;;;;;;;21.07;26.82;97339.78;5078973;28;931;-77
2023/01/20 06:22:24;;;;;;;;;;;;;;;20.74;27.42;97334.47;5077962;28;1041;-77
2023/01/20 06:24:50;;;;;;;;;;;;;;;20.74;27.13;97337.28;5076957;28;873;-78
2023/01/20 06:27:16;;;;;;;;;;;;;;;21.35;26.73;97342.88;5078333;28;1514;-79
2023/01/20 06:29:42;;;;;;;;;;;;;;;21.12;26.84;97342.03;5079006;28;1632;-79
2023/01/20 06:32:07;;;;;;;;;;;;;;;21.26;26.46;97341.53;5078086;28;1334;-78
2023/01/20 06:34:32;;;;;;;;;;;;;;;21.19;26.76;97336.16;5078245;28;1989;-78
2023/01/20 06:36:58;;;;;;;;;;;;;;;21.70;26.12;97330.25;5078064;28;1490;-78
2023/01/20 06:39:23;;;;;;;;;;;;;;;21.13;26.58;97335.13;5078113;28;1487;-79
2023/01/20 06:41:49;;;;;;;;;;;;;;;20.95;26.91;97326.50;5077773;28;1524;-77
2023/01/20 06:44:16;;;;;;;;;;;;;;;20.79;27.26;97328.22;5077676;28;1504;-78
2023/01/20 06:46:41;;;;;;;;;;;;;;;20.81;27.52;97330.59;5076486;28;1522;-77
2023/01/20 06:49:07;;;;;;;;;;;;;;;21.24;26.58;97327.06;5077918;28;1455;-77
2023/01/20 06:51:32;;;;;;;;;;;;;;;21.39;26.52;97323.75;5075777;28;1567;-76
2023/01/20 06:53:57;;;;;;;;;;;;;;;21.24;26.67;97315.75;5078133;28;1985;-78
2023/01/20 06:56:23;;;;;;;;;;;;;;;20.86;27.23;97315.09;5076737;28;2023;-80
2023/01/20 06:58:48;;;;;;;;;;;;;;;20.83;27.04;97318.81;5077892;28;1547;-80
2023/01/20 07:01:15;;;;;;;;;;;;;;;21.23;26.94;97311.31;5079317;28;1512;-79
2023/01/20 07:03:42;;;;;;;;;;;;;;;21.51;26.20;97309.53;5077000;28;1270;-78
2023/01/20 07:06:13;;;;;;;;;;;;;;;21.77;26.03;97304.53;5077236;28;1629;-78
2023/01/20 07:08:38;;;;;;;;;;;;;;;21.21;26.88;97313.06;5070504;28;1513;-78
2023/01/20 07:11:04;;;;;;;;;;;;;;;21.19;26.85;97307.03;5077257;28;1489;-77
2023/01/20 07:13:29;;;;;;;;;;;;;;;21.08;27.09;97310.25;5070136;28;1910;-79
2023/01/20 07:15:54;;;;;;;;;;;;;;;21.05;27.20;97311.19;5077622;28;1523;-78
2023/01/20 07:18:20;;;;;;;;;;;;;;;21.72;26.38;97310.78;5075677;28;1577;-78
2023/01/20 07:20:45;;;;;;;;;;;;;;;21.65;26.49;97313.84;5077854;28;1316;-78
2023/01/20 07:23:11;;;;;;;;;;;;;;;21.14;26.90;97314.09;5076771;28;1483;-77
2023/01/20 07:25:38;;;;;;;;;;;;;;;20.95;27.53;97315.19;5077199;28;1577;-78
2023/01/20 07:28:03;;;;;;;;;;;;;;;20.93;27.47;97309.19;5076988;28;1539;-78
2023/01/20 07:30:29;;;;;;;;;;;;;;;21.19;27.50;97316.34;5076672;28;1471;-78
2023/01/20 07:32:54;;;;;;;;;;;;;;;21.31;27.22;97317.56;5076858;28;1549;-78
2023/01/20 07:35:20;;;;;;;;;;;;;;;21.41;27.06;97322.03;5077034;28;1972;-79
2023/01/20 07:37:45;;;;;;;;;;;;;;;21.22;26.94;97315.41;5076830;28;1465;-78
2023/01/20 07:40:11;;;;;;;;;;;;;;;21.06;27.41;97318.41;5076846;28;1003;-79
2023/01/20 07:42:36;;;;;;;;;;;;;;;21.20;27.13;97300.94;5077116;28;992;-78
2023/01/20 07:45:02;;;;;;;;;;;;;;;21.12;27.89;97321.47;5076281;28;964;-77
2023/01/20 07:47:27;;;;;;;;;;;;;;;21.30;27.17;97319.59;5075951;28;946;-76
2023/01/20 07:49:53;;;;;;;;;;;;;;;21.27;27.12;97312.00;5076270;28;928;-77
2023/01/20 07:52:18;;;;;;;;;;;;;;;21.64;26.68;97323.63;5076340;28;933;-77
2023/01/20 07:54:44;;;;;;;;;;;;;;;21.25;27.51;97314.50;5076425;28;1902;-77
2023/01/20 07:57:09;;;;;;;;;;;;;;;21.12;27.52;97310.13;5076271;28;1457;-78
2023/01/20 07:59:34;;;;;;;;;;;;;;;21.11;27.79;97309.34;5075729;28;1761;-77
2023/01/20 08:02:00;;;;;;;;;;;;;;;21.42;27.11;97300.19;5075670;28;1458;-77
2023/01/20 08:04:25;;;;;;;;;;;;;;;21.94;26.59;97301.44;5076011;28;1325;-77
2023/01/20 08:06:51;;;;;;;;;;;;;;;21.59;27.05;97310.06;5075471;28;1544;-77
2023/01/20 08:09:16;;;;;;;;;;;;;;;21.23;27.44;97311.31;5075360;28;1734;-77
2023/01/20 08:11:42;;;;;;;;;;;;;;;21.12;27.95;97310.13;5077026;28;1564;-79
2023/01/20 08:14:07;;;;;;;;;;;;;;;21.02;28.05;97317.75;5076140;28;1980;-79
2023/01/20 08:16:32;;;;;;;;;;;;;;;21.13;27.81;97314.53;5076452;28;1706;-79
2023/01/20 08:18:58;;;;;;;;;;;;;;;21.07;27.95;97322.81;5077332;28;1254;-79
2023/01/20 08:21:24;;;;;;;;;;;;;;;21.97;26.57;97317.53;5078075;28;1518;-79
2023/01/20 08:23:50;;;;;;;;;;;;;;;21.26;27.64;97320.94;5071917;28;1483;-78
2023/01/20 08:26:15;;;;;;;;;;;;;;;21.02;27.88;97323.41;5075657;28;1539;-79
2023/01/20 08:28:41;;;;;;;;;;;;;;;21.18;27.90;97326.06;5075726;28;1478;-78
2023/01/20 08:31:07;;;;;;;;;;;;;;;21.23;27.65;97325.47;5076542;28;1455;-78
2023/01/20 08:33:33;;;;;;;;;;;;;;;21.54;27.32;97319.13;5073977;28;1967;-78
2023/01/20 08:36:05;;;;;;;;;;;;;;;21.40;27.38;97322.50;5076116;28;1458;-78
2023/01/20 08:38:30;;;;;;;;;;;;;;;20.96;27.76;97325.25;5075890;28;947;-78
2023/01/20 08:40:55;;;;;;;;;;;;;;;20.98;28.21;97305.75;5075143;28;1150;-78
2023/01/20 08:43:21;;;;;;;;;;;;;;;20.96;28.07;97311.09;5073195;28;950;-79
2023/01/20 08:45:46;;;;;;;;;;;;;;;21.05;27.79;97316.84;5056790;28;982;-79
2023/01/20 08:48:12;;;;;;;;;;;;;;;21.54;27.12;97307.81;5071571;28;1509;-80
2023/01/20 08:50:37;;;;;;;;;;;;;;;21.75;27.07;97301.34;5076264;28;1332;-78
2023/01/20 08:53:03;;;;;;;;;;;;;;;21.62;26.90;97303.47;5076477;28;1581;-79
2023/01/20 08:55:30;;;;;;;;;;;;;;;21.19;27.47;97298.56;5080146;28;1989;-80
2023/01/20 08:57:55;;;;;;;;;;;;;;;21.12;28.03;97288.28;5075269;28;1512;-78
2023/01/20 09:00:21;;;;;;;;;;;;;;;21.22;27.90;97275.81;5074925;28;1593;-77
2023/01/20 09:02:46;;;;;;;;;;;;;;;21.08;28.01;97284.81;5072804;28;1817;-78
2023/01/20 09:05:12;;;;;;;;;;;;;;;21.60;27.21;97277.66;5076179;28;1491;-79
2023/01/20 09:07:38;;;;;;;;;;;;;;;21.40;27.40;97277.19;5090753;28;1182;-78
2023/01/20 09:10:04;;;;;;;;;;;;;;;21.56;27.03;97272.16;5075792;28;991;-79
2023/01/20 09:12:29;;;;;;;;;;;;;;;21.07;28.05;97266.25;5091405;28;1465;-79
2023/01/20 09:14:55;;;;;;;;;;;;;;;21.06;28.12;97256.97;5074940;28;1982;-79
2023/01/20 09:17:20;;;;;;;;;;;;;;;21.07;27.75;97252.91;5057807;28;1541;-79
2023/01/20 09:19:45;;;;;;;;;;;;;;;21.10;28.12;97256.06;5076153;28;1569;-79
2023/01/20 09:22:11;;;;;;;;;;;;;;;21.30;27.57;97243.22;5077162;28;1469;-78
2023/01/20 09:24:36;;;;;;;;;;;;;;;21.35;27.62;97246.66;5075608;28;1460;-80
2023/01/20 09:27:02;;;;;;;;;;;;;;;21.41;27.39;97236.34;5076446;28;1481;-79
2023/01/20 09:29:27;;;;;;;;;;;;;;;21.24;27.90;97233.72;5076639;28;949;-79
2023/01/20 09:31:56;;;;;;;;;;;;;;;21.15;27.96;97225.16;5077656;28;922;-78
2023/01/20 09:34:23;;;;;;;;;;;;;;;20.98;28.13;97218.09;5076862;28;1979;-78
2023/01/20 09:43:52;;;;;;;;;;;;;;;21.46;27.40;97221.59;5081353;28;1140;-80
2023/01/20 09:45:24;;;;;;;;;;;;;;;21.26;27.61;97202.91;5082821;28;889;-79
2023/01/20 09:47:50;;;;;;;;;;;;;;;20.97;28.09;97191.06;5064405;28;953;-80
2023/01/20 09:53:34;;;;;;;;;;;;;;;21.25;27.78;97206.19;5036574;28;1975;-77
2023/01/20 09:56:00;;;;;;;;;;;;;;;21.58;27.20;97195.25;5020321;28;968;-78
2023/01/20 09:58:48;;;;;;;;;;;;;;;21.39;27.49;97190.72;5036057;28;1053;-78
2023/01/20 10:01:37;;;;;;;;;;;;;;;21.24;27.95;97188.44;4997242;28;1023;-77
2023/01/20 10:04:07;;;;;;;;;;;;;;;21.18;27.80;97189.47;4938228;29;1018;-78
2023/01/20 10:06:33;;;;;;;;;;;;;;;21.46;27.55;97179.16;4938745;29;1028;-77
2023/01/20 10:09:01;;;;;;;;;;;;;;;21.66;27.27;97176.75;4919980;29;1129;-78
2023/01/20 10:11:27;;;;;;;;;;;;;;;21.47;27.41;97172.25;4919771;29;1066;-78
2023/01/20 10:14:19;;;;;;;;;;;;;;;21.12;27.81;97172.31;4919500;29;1977;-77
2023/01/20 10:16:47;;;;;;;;;;;;;;;21.13;27.96;97171.06;4828894;29;2068;-78
2023/01/20 10:19:13;;;;;;;;;;;;;;;21.16;28.09;97153.19;4826755;29;975;-77
2023/01/20 10:21:47;;;;;;;;;;;;;;;21.47;27.50;97152.44;4826823;29;1009;-77
2023/01/20 10:24:14;;;;;;;;;;;;;;;21.41;27.59;97142.97;4826550;29;990;-77
2023/01/20 10:26:51;;;;;;;;;;;;;;;21.28;27.68;97143.81;4827306;29;1008;-78
2023/01/20 10:29:19;;;;;;;;;;;;;;;21.19;27.93;97140.94;4826558;29;1161;-77
2023/01/20 10:31:52;;;;;;;;;;;;;;;21.15;27.82;97137.47;4827085;29;1006;-77
2023/01/20 10:34:18;;;;;;;;;;;;;;;21.10;28.00;97126.75;4826372;29;1918;-77
2023/01/20 10:36:43;;;;;;;;;;;;;;;21.34;27.79;97121.38;4826516;29;1018;-78
2023/01/20 10:39:10;;;;;;;;;;;;;;;21.57;27.38;97115.19;4877546;29;952;-78
2023/01/20 10:41:46;;;;;;;;;;;;;;;21.43;27.79;97106.50;4941307;28;1616;-77
2023/01/20 10:44:12;;;;;;;;;;;;;;;21.18;28.14;97111.06;4957637;28;1847;-77
2023/01/20 10:46:55;;;;;;;;;;;;;;;21.00;28.29;97100.44;4955043;28;1716;-78
2023/01/20 10:49:36;;;;;;;;;;;;;;;21.29;28.02;97090.81;4954537;28;1612;-79
2023/01/20 10:52:20;;;;;;;;;;;;;;;21.60;27.51;97090.81;4973432;28;1645;-79
2023/01/20 10:54:51;;;;;;;;;;;;;;;21.52;27.42;97081.84;5059089;28;1902;-79
2023/01/20 10:57:16;;;;;;;;;;;;;;;21.24;27.75;97083.75;5056992;28;1764;-78
2023/01/20 10:59:44;;;;;;;;;;;;;;;21.11;27.91;97087.94;5057416;28;1709;-79
2023/01/20 11:02:13;;;;;;;;;;;;;;;21.27;28.01;97063.00;5055445;28;1646;-78
2023/01/20 11:04:39;;;;;;;;;;;;;;;21.37;27.88;97080.84;5058035;28;2341;-76
2023/01/20 11:07:08;;;;;;;;;;;;;;;21.53;27.54;97079.81;5064795;28;1823;-77
2023/01/20 11:09:36;;;;;;;;;;;;;;;21.23;27.85;97073.69;5049379;28;1708;-78
2023/01/20 11:12:02;;;;;;;;;;;;;;;21.13;27.97;97074.88;5052535;28;1684;-78
2023/01/20 11:14:28;;;;;;;;;;;;;;;21.14;27.90;97070.00;5068170;28;2007;-78
2023/01/20 11:16:55;;;;;;;;;;;;;;;21.05;28.33;97059.47;5068748;28;1449;-77
2023/01/20 11:19:21;;;;;;;;;;;;;;;20.98;28.68;97068.22;5064425;28;2225;-77
2023/01/20 11:21:46;;;;;;;;;;;;;;;21.55;27.44;97054.63;5067776;28;1892;-77
2023/01/20 11:24:27;;;;;;;;;;;;;;;21.36;28.05;97047.38;5071020;28;1817;-78
2023/01/20 11:26:53;;;;;;;;;;;;;;;21.05;27.98;97045.31;5068057;28;1657;-78
2023/01/20 11:29:18;;;;;;;;;;;;;;;21.13;28.37;97040.94;5071393;28;1856;-78
2023/01/20 11:31:47;;;;;;;;;;;;;;;20.93;28.70;97040.53;5085386;28;1736;-77
2023/01/20 11:34:18;;;;;;;;;;;;;;;21.38;27.90;97044.84;5070538;28;1984;-78
2023/01/20 11:36:44;;;;;;;;;;;;;;;21.24;28.11;97035.66;5087633;28;1768;-78
2023/01/20 11:39:42;;;;;;;;;;;;;;;21.54;27.72;97030.41;5072901;28;2069;-77
2023/01/20 11:42:11;;;;;;;;;;;;;;;21.29;27.74;97031.41;5037624;28;1728;-77
2023/01/20 11:44:43;;;;;;;;;;;;;;;21.14;27.96;97042.53;5026219;28;1679;-78
2023/01/20 11:47:25;;;;;;;;;;;;;;;21.08;28.32;97042.34;5037722;28;893;-78
2023/01/20 11:50:02;;;;;;;;;;;;;;;21.51;27.48;97031.38;5037725;28;1484;-78
2023/01/20 11:52:28;;;;;;;;;;;;;;;21.33;27.69;97026.44;5054064;28;1040;-78
2023/01/20 11:55:05;;;;;;;;;;;;;;;21.53;27.46;97028.84;5030195;28;1902;-78
2023/01/20 11:57:31;;;;;;;;;;;;;;;21.27;27.83;97012.09;5017161;28;1171;-78
2023/01/20 11:59:56;;;;;;;;;;;;;;;21.22;27.92;97015.53;5033136;28;1037;-79
2023/01/20 12:02:22;;;;;;;;;;;;;;;21.27;27.89;97012.09;5017544;28;1111;-78
2023/01/20 12:04:51;;;;;;;;;;;;;;;21.30;27.61;97019.69;5049342;28;1436;-78
2023/01/20 12:07:26;;;;;;;;;;;;;;;21.62;27.45;97019.59;5033623;28;960;-77
2023/01/20 12:09:53;;;;;;;;;;;;;;;21.18;27.81;97012.03;5033533;28;1431;-78
2023/01/20 12:12:22;;;;;;;;;;;;;;;21.10;28.17;97007.94;5016311;28;1916;-77
2023/01/20 12:14:48;;;;;;;;;;;;;;;21.20;28.03;97001.06;5012845;28;1975;-78
2023/01/20 12:17:32;;;;;;;;;;;;;;;21.04;28.12;97004.16;5032030;28;1519;-78
2023/01/20 12:20:00;;;;;;;;;;;;;;;21.30;27.73;97005.53;5072347;28;1376;-77
2023/01/20 12:22:49;;;;;;;;;;;;;;;21.32;27.70;97005.84;5074347;28;1353;-79
2023/01/20 12:25:18;;;;;;;;;;;;;;;21.17;28.09;97007.66;5052628;28;1488;-79
2023/01/20 12:27:57;;;;;;;;;;;;;;;21.20;28.12;97001.06;5049989;28;1712;-77
2023/01/20 12:30:22;;;;;;;;;;;;;;;21.06;28.14;96995.97;4993231;28;1503;-78
2023/01/20 12:32:48;;;;;;;;;;;;;;;21.65;27.23;97008.09;4993683;28;1568;-79
2023/01/20 12:35:14;;;;;;;;;;;;;;;21.40;27.83;96997.03;4992435;28;1978;-78
2023/01/20 12:37:42;;;;;;;;;;;;;;;21.42;27.73;97000.22;5025065;28;1474;-79
2023/01/20 12:40:08;;;;;;;;;;;;;;;21.06;28.18;97007.28;5010289;28;1640;-77
2023/01/20 12:42:40;;;;;;;;;;;;;;;21.24;27.95;97006.56;4994205;28;1432;-79
2023/01/20 12:45:12;;;;;;;;;;;;;;;21.24;27.85;97003.72;5009675;28;1395;-79
2023/01/20 12:47:42;;;;;;;;;;;;;;;21.49;27.84;96994.25;5009879;28;1566;-78
2023/01/20 12:50:10;;;;;;;;;;;;;;;21.46;27.54;97006.50;5009779;28;1470;-78
2023/01/20 12:52:56;;;;;;;;;;;;;;;21.44;27.28;96997.69;4993204;28;1992;-79
2023/01/20 12:55:21;;;;;;;;;;;;;;;21.25;27.99;96991.97;4992081;28;1914;-79
2023/01/20 12:57:50;;;;;;;;;;;;;;;21.17;28.14;96990.66;4993384;28;1594;-79
2023/01/20 13:00:22;;;;;;;;;;;;;;;20.94;28.29;96982.75;4995587;28;1502;-79
2023/01/20 13:03:05;;;;;;;;;;;;;;;21.32;27.88;96990.91;5030022;28;1573;-78
2023/01/20 13:05:34;;;;;;;;;;;;;;;21.52;27.52;96982.00;5041133;28;1499;-80
2023/01/20 13:08:10;;;;;;;;;;;;;;;21.60;27.39;96986.06;5042991;28;1567;-79
2023/01/20 13:10:46;;;;;;;;;;;;;;;21.05;27.85;97011.38;5022401;28;1510;-78
2023/01/20 13:13:17;;;;;;;;;;;;;;;21.35;27.75;97004.13;5045163;28;1581;-79